Windsor Airport
CYQG : now visible

Airfield :











YOU CAN JOIN US ON...

 
LOGIN :

Register | Disclaimer

   EN    FR    IT 

 









Legend :    VFR   Marginal VFR   IFR   Intensive IFR   Very Intensive IFR
Visi :
Ceiling :
>= 8 km
>= 3000ft
5 to 8 km
1000 to 3000 ft
1500m to 5 km
500 to 1000 ft
800 to 1500m
200 to 500 ft
< 800m
< 200 ft
Symbols :   Thunderstorms  Fog  Heavy snow  Heavy precipitations  Wind > 20 kt






- Airport Elevation : 622 ft
- IATA code : YQG


CYQG - Windsor

CURRENT METAR :
  • 190200Z AUTO 00000KT 1 1/2SM BR CLR 00/M00 A2975 RMK SLP081

EXPIRED METARs :
  • 190159Z AUTO 00000KT 1 1/2SM BR CLR 00/M00 A2975 RMK SLP081
  • 190128Z AUTO 19002KT 5SM BR CLR 00/M01 A2975 RMK SLP081
  • 190100Z AUTO 19002KT 9SM SCT035 01/01 A2975 RMK SLP082
  • 190000Z AUTO 12003KT 9SM CLR 02/01 A2974 RMK SLP080

TAF AMD TAF CYQG
Valid from the 19 at 01:00 until the 20 at 00:00 UTC


190144Z 1901/1924 VRB03KT 5SM BR SKC
TEMPO 1901/1909 2SM BR BKN005
FM190900 25005KT 2SM BR OVC006
PROB40 1909/1915 3/4SM BR OVC003
FM191500 27005KT P6SM BKN006 OVC012
BECMG 1918/1920 24008KT
FM192100 22008KT P6SM SCT006 OVC012 RMK FCST BASED ON AUTO OBS. NXT FCST BY 190600Z



MET'MAP, your aeronautical weather chart ! - Copyright ORBIFLY December 2007 - Disclaimer

ORBIFLY MET'MAP TEAM :

Programming & Development : Alexandra Zaïnal
Concept & Development : Baudouin d'Aumeries
Co-Development & Prog : Marc-Olivier Méhu
Technical & hardware support : Manuel Goepfert

Contact : metmap@orbifly.com




SOURCES & CREDITS :

   NOAA       Earth
Advisory